Time;durP1;ratioP1;P1;durP2;ratioP2;P2;SDS_P1;SDS_P2;PMS_P1;PMS_P2;Temp;Humidity;BMP_temperature;BMP_pressure;BME280_temperature;BME280_humidity;BME280_pressure;Samples;Min_cycle;Max_cycle;Signal;HPM_P1;HPM_P2
2024/03/27 00:03:26;;;;;;;;;;;20.60;45.30;;;;;;8355087;28;19924;-55
2024/03/27 00:07:27;;;;;;;;;;;20.60;45.00;;;;;;8355358;28;20384;-55
2024/03/27 00:11:28;;;;;;;;;;;20.60;44.80;;;;;;8354920;27;19917;-57
2024/03/27 00:15:28;;;;;;;;;;;20.60;44.30;;;;;;8354788;28;20366;-57
2024/03/27 00:19:29;;;;;;;;;;;20.60;44.00;;;;;;8354604;28;19920;-56
2024/03/27 00:23:30;;;;;;;;;;;20.60;44.00;;;;;;8355248;28;19921;-57
2024/03/27 00:27:30;;;;;;;;;;;20.60;44.40;;;;;;8356803;28;19951;-59
2024/03/27 00:31:31;;;;;;;;;;;20.50;44.80;;;;;;8355723;28;19920;-60
2024/03/27 00:35:31;;;;;;;;;;;20.40;45.10;;;;;;8357045;28;20580;-58
2024/03/27 00:39:32;;;;;;;;;;;20.50;44.90;;;;;;8356683;28;19965;-60
2024/03/27 00:43:33;;;;;;;;;;;20.60;44.80;;;;;;8361492;27;19924;-58
2024/03/27 00:47:33;;;;;;;;;;;20.60;44.10;;;;;;8345392;28;19913;-60
2024/03/27 00:51:34;;;;;;;;;;;20.60;43.70;;;;;;8311801;28;20421;-60
2024/03/27 00:55:34;;;;;;;;;;;20.70;43.60;;;;;;8329096;28;19916;-59
2024/03/27 00:59:35;;;;;;;;;;;20.70;43.50;;;;;;8329389;28;19917;-59
2024/03/27 01:03:35;;;;;;;;;;;20.70;43.40;;;;;;8328919;28;20262;-60
2024/03/27 01:07:36;;;;;;;;;;;20.70;42.90;;;;;;8328889;28;19917;-59
2024/03/27 01:11:37;;;;;;;;;;;20.80;42.60;;;;;;8331126;27;19913;-59
2024/03/27 01:15:37;;;;;;;;;;;20.70;43.20;;;;;;8361761;28;19932;-64
2024/03/27 01:19:38;;;;;;;;;;;20.60;44.20;;;;;;8360920;28;19928;-59
2024/03/27 01:23:38;;;;;;;;;;;20.50;44.10;;;;;;8328643;28;19925;-59
2024/03/27 01:27:39;;;;;;;;;;;20.50;43.90;;;;;;8328352;28;19970;-57
2024/03/27 01:31:39;;;;;;;;;;;20.50;43.50;;;;;;8396928;28;19954;-57
2024/03/27 01:35:44;;;;;;;;;;;20.60;44.00;;;;;;8328448;28;19913;-59
2024/03/27 01:39:44;;;;;;;;;;;20.60;42.90;;;;;;8328229;28;20264;-59
2024/03/27 01:43:45;;;;;;;;;;;20.60;42.60;;;;;;8328173;28;19960;-59
2024/03/27 01:47:45;;;;;;;;;;;20.70;42.40;;;;;;8309556;28;20375;-60
2024/03/27 01:51:47;;;;;;;;;;;20.70;43.20;;;;;;8295261;28;19910;-58
2024/03/27 01:55:47;;;;;;;;;;;20.70;42.80;;;;;;8319215;28;19909;-60
2024/03/27 01:59:48;;;;;;;;;;;20.70;43.00;;;;;;8328108;28;19917;-58
2024/03/27 02:03:49;;;;;;;;;;;20.70;43.20;;;;;;8327811;28;19957;-59
2024/03/27 02:07:50;;;;;;;;;;;20.50;43.70;;;;;;8327509;28;19914;-57
2024/03/27 02:11:50;;;;;;;;;;;20.50;43.90;;;;;;8328211;28;20016;-59
2024/03/27 02:16:00;;;;;;;;;;;20.50;43.50;;;;;;8328351;27;19921;-58
2024/03/27 02:20:01;;;;;;;;;;;20.60;43.50;;;;;;8354496;27;20281;-60
2024/03/27 02:24:08;;;;;;;;;;;20.60;42.90;;;;;;8385444;28;19921;-57
2024/03/27 02:28:08;;;;;;;;;;;20.60;42.60;;;;;;8388730;27;20269;-56
2024/03/27 02:32:09;;;;;;;;;;;20.50;42.50;;;;;;8389812;28;20108;-58
2024/03/27 02:36:10;;;;;;;;;;;20.50;42.30;;;;;;8388754;28;20114;-56
2024/03/27 02:40:10;;;;;;;;;;;20.50;42.20;;;;;;8390607;27;19909;-58
2024/03/27 02:44:11;;;;;;;;;;;20.50;41.90;;;;;;8367040;27;20446;-58
2024/03/27 02:48:13;;;;;;;;;;;20.50;41.80;;;;;;8357296;28;19982;-57
2024/03/27 02:52:13;;;;;;;;;;;20.30;42.70;;;;;;8357401;28;19913;-58
2024/03/27 02:56:14;;;;;;;;;;;20.10;43.80;;;;;;8357680;28;19919;-58
2024/03/27 03:00:14;;;;;;;;;;;20.10;43.50;;;;;;8357046;28;20321;-58
2024/03/27 03:04:15;;;;;;;;;;;20.20;42.90;;;;;;8356137;28;19965;-58
2024/03/27 03:08:16;;;;;;;;;;;20.20;42.50;;;;;;8356718;28;19909;-57
2024/03/27 03:12:16;;;;;;;;;;;20.20;42.20;;;;;;8357341;28;20004;-57
2024/03/27 03:16:17;;;;;;;;;;;20.30;42.00;;;;;;8356739;28;19920;-58
2024/03/27 03:20:17;;;;;;;;;;;20.30;41.90;;;;;;8356337;28;19923;-56
2024/03/27 03:24:18;;;;;;;;;;;20.30;41.80;;;;;;8356261;28;20227;-56
2024/03/27 03:28:18;;;;;;;;;;;20.30;41.70;;;;;;8356277;28;19912;-56
2024/03/27 03:32:19;;;;;;;;;;;20.30;41.60;;;;;;8355990;28;19913;-57
2024/03/27 03:36:20;;;;;;;;;;;20.20;41.50;;;;;;8356265;28;19920;-57
2024/03/27 03:40:21;;;;;;;;;;;20.10;42.60;;;;;;8357151;28;19909;-56
2024/03/27 03:44:22;;;;;;;;;;;19.90;43.40;;;;;;8355508;28;19965;-57
2024/03/27 03:48:23;;;;;;;;;;;19.90;43.10;;;;;;8355692;28;20020;-57
2024/03/27 03:52:23;;;;;;;;;;;20.00;42.50;;;;;;8355980;28;20285;-57
2024/03/27 03:56:24;;;;;;;;;;;20.10;42.20;;;;;;8355824;28;20095;-57
2024/03/27 04:00:24;;;;;;;;;;;20.10;41.90;;;;;;8355307;28;20016;-57
2024/03/27 04:04:25;;;;;;;;;;;20.20;41.80;;;;;;8355491;28;19913;-57
2024/03/27 04:08:26;;;;;;;;;;;20.10;41.60;;;;;;8355445;28;19917;-57
2024/03/27 04:12:26;;;;;;;;;;;20.10;42.80;;;;;;8355043;28;19913;-57
2024/03/27 04:16:27;;;;;;;;;;;20.00;42.70;;;;;;8357015;28;19909;-57
2024/03/27 04:20:27;;;;;;;;;;;19.80;43.00;;;;;;8361006;28;19916;-57
2024/03/27 04:24:28;;;;;;;;;;;19.80;43.20;;;;;;8360928;28;19928;-56
2024/03/27 04:28:28;;;;;;;;;;;19.70;43.30;;;;;;8360990;28;19944;-58
2024/03/27 04:32:29;;;;;;;;;;;19.70;43.50;;;;;;8360944;28;19913;-57
2024/03/27 04:36:30;;;;;;;;;;;19.70;43.60;;;;;;8360789;28;19943;-58
2024/03/27 04:40:31;;;;;;;;;;;19.70;43.60;;;;;;8360510;28;19913;-58
2024/03/27 04:44:31;;;;;;;;;;;19.60;43.60;;;;;;8360324;28;19917;-57
2024/03/27 04:48:32;;;;;;;;;;;19.70;43.70;;;;;;8360547;28;19938;-58
2024/03/27 04:52:32;;;;;;;;;;;19.60;43.70;;;;;;8360064;28;19955;-58
2024/03/27 04:56:33;;;;;;;;;;;19.60;43.80;;;;;;8360346;27;19913;-58
2024/03/27 05:00:33;;;;;;;;;;;19.60;43.80;;;;;;8360204;28;20281;-58
2024/03/27 05:04:34;;;;;;;;;;;19.60;43.80;;;;;;8359946;28;20008;-57
2024/03/27 05:08:35;;;;;;;;;;;19.60;43.90;;;;;;8359755;28;19913;-58
2024/03/27 05:12:35;;;;;;;;;;;19.60;43.90;;;;;;8359921;28;19977;-58
2024/03/27 05:16:36;;;;;;;;;;;19.60;44.00;;;;;;8359553;28;19924;-57
2024/03/27 05:20:36;;;;;;;;;;;19.60;44.00;;;;;;8341547;28;19928;-58
2024/03/27 05:24:37;;;;;;;;;;;19.60;43.90;;;;;;8359305;28;19925;-57
2024/03/27 05:28:37;;;;;;;;;;;19.60;43.80;;;;;;8358749;28;20307;-58
2024/03/27 05:32:38;;;;;;;;;;;19.60;43.80;;;;;;8359901;28;19949;-55
2024/03/27 05:36:39;;;;;;;;;;;19.70;43.70;;;;;;8359231;28;20423;-58
2024/03/27 05:40:39;;;;;;;;;;;19.70;43.60;;;;;;8359299;28;19913;-58
2024/03/27 05:44:40;;;;;;;;;;;19.70;43.60;;;;;;8358690;28;20282;-58
2024/03/27 05:48:40;;;;;;;;;;;19.80;43.60;;;;;;8341122;28;19909;-57
2024/03/27 05:52:41;;;;;;;;;;;19.80;43.60;;;;;;8359204;28;19917;-56
2024/03/27 05:56:41;;;;;;;;;;;19.70;43.60;;;;;;8358840;28;20016;-57
2024/03/27 06:00:42;;;;;;;;;;;19.70;43.60;;;;;;8358675;28;19912;-58
2024/03/27 06:04:42;;;;;;;;;;;19.80;43.60;;;;;;8358529;28;19964;-57
2024/03/27 06:08:44;;;;;;;;;;;19.80;43.60;;;;;;8358523;28;19930;-58
2024/03/27 06:12:44;;;;;;;;;;;19.70;43.60;;;;;;8358213;28;20003;-58
2024/03/27 06:16:45;;;;;;;;;;;19.80;43.60;;;;;;8340246;27;19913;-58
2024/03/27 06:20:46;;;;;;;;;;;19.70;43.60;;;;;;8358260;28;19917;-58
2024/03/27 06:24:49;;;;;;;;;;;19.70;43.60;;;;;;8357954;28;19977;-58
2024/03/27 06:28:49;;;;;;;;;;;19.70;43.60;;;;;;8340015;28;19962;-58
2024/03/27 06:32:50;;;;;;;;;;;19.70;43.60;;;;;;8357947;28;19913;-57
2024/03/27 06:36:50;;;;;;;;;;;19.70;43.60;;;;;;8357791;27;20000;-58
2024/03/27 06:40:51;;;;;;;;;;;19.70;43.60;;;;;;8356376;28;20143;-56
2024/03/27 06:44:51;;;;;;;;;;;19.70;43.60;;;;;;8357321;28;19916;-56
2024/03/27 06:48:56;;;;;;;;;;;19.70;43.60;;;;;;8357795;28;19909;-55
2024/03/27 06:52:57;;;;;;;;;;;19.70;43.60;;;;;;8357229;28;19919;-55
2024/03/27 06:56:57;;;;;;;;;;;19.70;43.60;;;;;;8339465;28;19913;-54
2024/03/27 07:00:58;;;;;;;;;;;19.70;43.60;;;;;;8339452;28;20663;-55
2024/03/27 07:04:59;;;;;;;;;;;19.70;43.60;;;;;;8356877;28;20015;-53
2024/03/27 07:08:59;;;;;;;;;;;19.80;43.60;;;;;;8356937;28;20380;-53
2024/03/27 07:13:00;;;;;;;;;;;19.70;43.60;;;;;;8356731;27;19913;-55
2024/03/27 07:17:00;;;;;;;;;;;19.70;43.60;;;;;;8357011;27;19914;-54
2024/03/27 07:21:01;;;;;;;;;;;19.70;43.60;;;;;;8356606;28;19940;-53
2024/03/27 07:25:01;;;;;;;;;;;19.70;43.60;;;;;;8356335;28;19921;-56
2024/03/27 07:29:02;;;;;;;;;;;19.80;43.60;;;;;;8356579;28;19913;-54
2024/03/27 07:33:03;;;;;;;;;;;19.80;43.60;;;;;;8356274;28;19952;-55
2024/03/27 07:37:03;;;;;;;;;;;19.70;43.60;;;;;;8356366;28;19917;-55
2024/03/27 07:41:04;;;;;;;;;;;19.70;43.60;;;;;;8356074;28;19908;-54
2024/03/27 07:45:05;;;;;;;;;;;19.70;43.60;;;;;;8355917;27;19942;-54
2024/03/27 07:49:05;;;;;;;;;;;19.70;43.60;;;;;;8356067;28;19913;-53
2024/03/27 07:53:06;;;;;;;;;;;19.70;43.60;;;;;;8355712;28;20043;-54
2024/03/27 07:57:07;;;;;;;;;;;19.70;43.60;;;;;;8355889;28;20008;-54
2024/03/27 08:01:08;;;;;;;;;;;19.70;43.60;;;;;;8355672;28;19909;-57
2024/03/27 08:05:09;;;;;;;;;;;19.70;43.60;;;;;;8355771;28;19920;-57
2024/03/27 08:09:10;;;;;;;;;;;19.70;43.60;;;;;;8355358;28;20056;-57
2024/03/27 08:13:10;;;;;;;;;;;19.70;43.60;;;;;;8355366;28;19917;-56
2024/03/27 08:17:11;;;;;;;;;;;19.70;43.60;;;;;;8355561;28;19917;-57
2024/03/27 08:21:12;;;;;;;;;;;19.70;43.60;;;;;;8355385;28;19916;-57
2024/03/27 08:25:13;;;;;;;;;;;19.70;43.60;;;;;;8355147;28;19925;-57
2024/03/27 08:29:14;;;;;;;;;;;19.70;43.60;;;;;;8355371;28;19913;-57
2024/03/27 08:33:14;;;;;;;;;;;19.70;43.60;;;;;;8355242;28;19957;-57
2024/03/27 08:37:15;;;;;;;;;;;19.70;43.60;;;;;;8355145;28;19913;-57
2024/03/27 08:41:15;;;;;;;;;;;19.70;43.60;;;;;;8354774;28;19954;-57
2024/03/27 08:45:16;;;;;;;;;;;19.70;43.60;;;;;;8354691;28;19924;-57
2024/03/27 08:49:17;;;;;;;;;;;19.70;43.60;;;;;;8354722;28;19913;-56
2024/03/27 08:53:17;;;;;;;;;;;19.70;43.60;;;;;;8354310;28;19944;-57
2024/03/27 08:57:18;;;;;;;;;;;19.70;43.60;;;;;;8354579;28;19948;-56
2024/03/27 09:01:18;;;;;;;;;;;19.70;43.60;;;;;;8354677;28;19938;-56
2024/03/27 09:05:19;;;;;;;;;;;19.70;43.60;;;;;;8358632;28;19916;-57
2024/03/27 09:09:20;;;;;;;;;;;19.70;43.60;;;;;;8360047;28;20490;-57
2024/03/27 09:13:20;;;;;;;;;;;19.80;43.60;;;;;;8360232;28;19940;-58
2024/03/27 09:17:21;;;;;;;;;;;19.80;43.50;;;;;;8359596;27;19921;-56
2024/03/27 09:21:22;;;;;;;;;;;19.70;43.50;;;;;;8359698;28;19920;-57
2024/03/27 09:25:22;;;;;;;;;;;19.70;43.50;;;;;;8359745;28;19928;-57
2024/03/27 09:29:23;;;;;;;;;;;19.70;43.50;;;;;;8359505;28;20016;-55
2024/03/27 09:33:23;;;;;;;;;;;19.80;43.40;;;;;;8359347;28;19924;-57
2024/03/27 09:37:24;;;;;;;;;;;19.80;43.40;;;;;;8359453;28;20445;-56
2024/03/27 09:41:25;;;;;;;;;;;19.80;43.40;;;;;;8359072;28;19913;-57
2024/03/27 09:45:26;;;;;;;;;;;19.70;43.50;;;;;;8358881;28;20020;-58
2024/03/27 09:49:28;;;;;;;;;;;19.70;43.50;;;;;;8359277;28;19908;-58
2024/03/27 09:53:29;;;;;;;;;;;19.70;43.50;;;;;;8359114;28;19909;-58
2024/03/27 09:57:29;;;;;;;;;;;19.70;43.50;;;;;;8358806;28;19913;-58
2024/03/27 10:01:31;;;;;;;;;;;19.70;43.60;;;;;;8358591;28;19945;-57
2024/03/27 10:05:32;;;;;;;;;;;19.70;43.60;;;;;;8358465;28;19927;-57
2024/03/27 10:09:33;;;;;;;;;;;19.70;43.60;;;;;;8358401;28;19909;-58
2024/03/27 10:13:34;;;;;;;;;;;19.60;43.50;;;;;;8323743;28;19910;-58
2024/03/27 10:17:35;;;;;;;;;;;19.60;43.50;;;;;;8325142;28;19924;-57
2024/03/27 10:21:35;;;;;;;;;;;19.60;43.60;;;;;;8325417;28;19909;-53
2024/03/27 10:25:40;;;;;;;;;;;19.60;43.60;;;;;;8324995;28;20459;-55
2024/03/27 10:29:40;;;;;;;;;;;19.60;43.60;;;;;;8324770;28;19909;-54
2024/03/27 10:33:41;;;;;;;;;;;19.70;43.60;;;;;;8326056;28;19966;-55
2024/03/27 10:37:45;;;;;;;;;;;19.70;43.60;;;;;;8325170;28;19965;-53
2024/03/27 10:41:45;;;;;;;;;;;19.70;43.40;;;;;;8327928;28;19908;-55
2024/03/27 10:45:47;;;;;;;;;;;19.70;43.40;;;;;;8339567;28;19995;-52
2024/03/27 10:49:48;;;;;;;;;;;19.70;43.30;;;;;;8357125;28;19909;-55
2024/03/27 10:53:48;;;;;;;;;;;19.70;43.30;;;;;;8357573;28;20413;-55
2024/03/27 10:57:49;;;;;;;;;;;19.70;43.30;;;;;;8357259;28;20393;-54
2024/03/27 11:01:59;;;;;;;;;;;19.70;43.30;;;;;;8323121;28;20288;-53
2024/03/27 11:05:59;;;;;;;;;;;19.70;43.30;;;;;;8356807;28;19913;-54
2024/03/27 11:10:00;;;;;;;;;;;19.70;43.30;;;;;;8356693;28;19920;-54
2024/03/27 11:14:00;;;;;;;;;;;19.70;43.30;;;;;;8356594;28;19987;-56
2024/03/27 11:18:01;;;;;;;;;;;19.70;43.30;;;;;;8356945;27;19925;-54
2024/03/27 11:22:01;;;;;;;;;;;19.80;43.30;;;;;;8356588;28;20003;-53
2024/03/27 11:26:02;;;;;;;;;;;19.70;43.30;;;;;;8338031;28;20155;-54
2024/03/27 11:30:03;;;;;;;;;;;19.70;43.30;;;;;;8356493;28;19920;-54
2024/03/27 11:34:03;;;;;;;;;;;19.70;43.80;;;;;;8356363;28;19917;-54
2024/03/27 11:38:04;;;;;;;;;;;19.70;43.40;;;;;;8356665;28;19959;-53
2024/03/27 11:42:05;;;;;;;;;;;19.70;43.30;;;;;;8356055;28;20365;-54
2024/03/27 11:46:06;;;;;;;;;;;19.70;43.40;;;;;;8355649;28;19966;-54
2024/03/27 11:50:08;;;;;;;;;;;19.70;43.30;;;;;;8356135;28;19909;-54
2024/03/27 11:54:08;;;;;;;;;;;19.70;43.30;;;;;;8355902;28;20354;-53
2024/03/27 11:58:09;;;;;;;;;;;19.70;43.30;;;;;;8356535;28;20418;-54
2024/03/27 12:02:09;;;;;;;;;;;19.70;43.30;;;;;;8355874;28;19913;-55
2024/03/27 12:06:10;;;;;;;;;;;19.70;43.20;;;;;;8337931;28;19917;-55
2024/03/27 12:10:11;;;;;;;;;;;19.70;43.30;;;;;;8355495;28;19923;-55
2024/03/27 12:14:15;;;;;;;;;;;19.70;42.90;;;;;;8355323;28;19947;-56
2024/03/27 12:18:16;;;;;;;;;;;19.70;43.20;;;;;;8355232;27;20392;-54
2024/03/27 12:22:17;;;;;;;;;;;19.80;43.30;;;;;;8356410;28;20318;-55
2024/03/27 12:26:18;;;;;;;;;;;19.70;43.20;;;;;;8355557;28;19917;-53
2024/03/27 12:30:21;;;;;;;;;;;19.70;43.20;;;;;;8355032;28;19909;-55
2024/03/27 12:34:22;;;;;;;;;;;19.70;43.20;;;;;;8354914;28;19913;-54
2024/03/27 12:38:22;;;;;;;;;;;19.80;43.20;;;;;;8356406;28;19916;-56
2024/03/27 12:42:23;;;;;;;;;;;19.70;43.20;;;;;;8360695;28;19912;-57
2024/03/27 12:46:23;;;;;;;;;;;19.80;43.20;;;;;;8360574;28;19917;-57
2024/03/27 12:50:24;;;;;;;;;;;19.80;43.20;;;;;;8360295;28;19920;-57
2024/03/27 12:54:24;;;;;;;;;;;19.70;43.20;;;;;;8360377;28;19986;-56
2024/03/27 12:58:25;;;;;;;;;;;19.80;43.20;;;;;;8360340;28;19909;-58
2024/03/27 13:02:26;;;;;;;;;;;19.80;43.30;;;;;;8360380;28;20292;-58
2024/03/27 13:06:26;;;;;;;;;;;19.70;43.20;;;;;;8360606;28;19924;-59
2024/03/27 13:10:29;;;;;;;;;;;19.70;43.30;;;;;;8359914;28;20359;-58
2024/03/27 13:14:29;;;;;;;;;;;19.70;43.30;;;;;;8359952;28;19939;-56
2024/03/27 13:18:30;;;;;;;;;;;19.70;43.40;;;;;;8359610;27;19931;-57
2024/03/27 13:22:30;;;;;;;;;;;19.70;43.40;;;;;;8359549;28;19948;-57
2024/03/27 13:26:32;;;;;;;;;;;19.70;44.00;;;;;;8359541;28;19921;-58
2024/03/27 13:30:32;;;;;;;;;;;19.60;43.50;;;;;;8359629;28;19978;-56
2024/03/27 13:34:33;;;;;;;;;;;19.60;43.50;;;;;;8359342;28;19913;-58
2024/03/27 13:38:33;;;;;;;;;;;19.70;43.60;;;;;;8359364;28;20377;-56
2024/03/27 13:42:34;;;;;;;;;;;19.60;43.50;;;;;;8359035;28;19924;-56
2024/03/27 13:46:34;;;;;;;;;;;19.70;43.50;;;;;;8359062;28;20128;-57
2024/03/27 13:50:35;;;;;;;;;;;19.70;43.40;;;;;;8358576;28;19908;-58
2024/03/27 13:54:37;;;;;;;;;;;19.70;43.40;;;;;;8358929;28;19917;-58
2024/03/27 13:58:38;;;;;;;;;;;19.70;43.40;;;;;;8358730;28;20285;-58
2024/03/27 14:02:39;;;;;;;;;;;19.70;43.40;;;;;;8359831;28;19943;-58
2024/03/27 14:06:39;;;;;;;;;;;19.70;43.40;;;;;;8358463;28;19927;-58
2024/03/27 14:10:40;;;;;;;;;;;19.60;43.40;;;;;;8358354;28;19909;-58
2024/03/27 14:14:40;;;;;;;;;;;19.70;43.40;;;;;;8358689;28;19913;-58
2024/03/27 14:18:41;;;;;;;;;;;19.70;43.30;;;;;;8358197;28;19921;-58
2024/03/27 14:22:41;;;;;;;;;;;19.70;43.30;;;;;;8357977;28;19920;-57
2024/03/27 14:26:42;;;;;;;;;;;19.70;43.30;;;;;;8357813;28;20259;-58
2024/03/27 14:30:42;;;;;;;;;;;19.70;43.30;;;;;;8358172;28;19909;-57
2024/03/27 14:34:43;;;;;;;;;;;19.70;43.30;;;;;;8357900;28;19913;-57
2024/03/27 14:38:43;;;;;;;;;;;19.70;43.40;;;;;;8358434;28;20387;-58
2024/03/27 14:42:44;;;;;;;;;;;19.70;43.40;;;;;;8357355;28;19917;-57
2024/03/27 14:46:45;;;;;;;;;;;19.70;43.40;;;;;;8358590;28;20265;-57
2024/03/27 14:50:45;;;;;;;;;;;19.70;43.40;;;;;;8357290;28;20000;-56
2024/03/27 14:54:47;;;;;;;;;;;19.70;43.60;;;;;;8356877;28;19913;-58
2024/03/27 14:58:48;;;;;;;;;;;19.80;44.30;;;;;;8357236;28;20401;-58
2024/03/27 15:02:49;;;;;;;;;;;19.80;44.10;;;;;;8356252;28;20290;-58
2024/03/27 15:06:50;;;;;;;;;;;19.80;44.20;;;;;;8357265;28;19917;-56
2024/03/27 15:10:50;;;;;;;;;;;19.80;44.10;;;;;;8356800;28;19912;-56
2024/03/27 15:14:51;;;;;;;;;;;19.80;44.40;;;;;;8357338;28;19916;-55
2024/03/27 15:18:51;;;;;;;;;;;19.80;44.00;;;;;;8356621;28;19925;-58
2024/03/27 15:22:52;;;;;;;;;;;19.80;44.20;;;;;;8355843;28;19965;-57
2024/03/27 15:26:52;;;;;;;;;;;19.80;44.20;;;;;;8348145;28;20285;-58
2024/03/27 15:30:53;;;;;;;;;;;19.80;44.10;;;;;;8356483;28;19920;-59
2024/03/27 15:34:54;;;;;;;;;;;19.80;44.30;;;;;;8355807;28;20398;-59
2024/03/27 15:38:55;;;;;;;;;;;19.80;44.20;;;;;;8356250;28;19909;-58
2024/03/27 15:42:56;;;;;;;;;;;19.80;44.20;;;;;;8357886;27;19912;-59
2024/03/27 15:46:56;;;;;;;;;;;19.80;44.20;;;;;;8355884;28;19956;-57
2024/03/27 15:50:57;;;;;;;;;;;19.80;44.20;;;;;;8356099;28;19916;-58
2024/03/27 15:54:57;;;;;;;;;;;19.80;44.30;;;;;;8355985;28;20004;-59
2024/03/27 15:58:58;;;;;;;;;;;19.80;44.50;;;;;;8355491;28;19999;-58
2024/03/27 16:02:58;;;;;;;;;;;19.80;44.50;;;;;;8355618;28;20398;-57
2024/03/27 16:06:59;;;;;;;;;;;19.80;44.40;;;;;;8339721;28;19917;-59
2024/03/27 16:11:00;;;;;;;;;;;19.80;44.60;;;;;;8339973;28;19919;-59
2024/03/27 16:15:01;;;;;;;;;;;19.80;45.30;;;;;;8327647;28;19910;-58
2024/03/27 16:19:02;;;;;;;;;;;19.80;44.60;;;;;;8322041;28;19965;-59
2024/03/27 16:23:02;;;;;;;;;;;19.80;44.60;;;;;;8349934;28;20148;-58
2024/03/27 16:27:03;;;;;;;;;;;19.80;44.60;;;;;;8354565;28;19917;-59
2024/03/27 16:31:04;;;;;;;;;;;19.90;44.90;;;;;;8354874;28;19917;-57
2024/03/27 16:35:04;;;;;;;;;;;19.80;44.60;;;;;;8354362;28;20377;-59
2024/03/27 16:39:05;;;;;;;;;;;19.90;44.70;;;;;;8355725;28;19950;-59
2024/03/27 16:43:06;;;;;;;;;;;19.80;44.70;;;;;;8356090;27;19943;-58
2024/03/27 16:47:06;;;;;;;;;;;19.90;44.90;;;;;;8348826;28;20457;-58
2024/03/27 16:51:08;;;;;;;;;;;19.90;44.90;;;;;;8321650;28;20500;-58
2024/03/27 16:55:09;;;;;;;;;;;19.90;45.10;;;;;;8321737;28;19959;-59
2024/03/27 16:59:10;;;;;;;;;;;19.90;45.00;;;;;;8321518;28;19952;-59
2024/03/27 17:03:10;;;;;;;;;;;19.90;44.60;;;;;;8321540;28;20003;-59
2024/03/27 17:07:11;;;;;;;;;;;19.80;44.50;;;;;;8322045;28;19913;-57
2024/03/27 17:11:11;;;;;;;;;;;19.80;44.40;;;;;;8321582;28;19918;-59
2024/03/27 17:15:12;;;;;;;;;;;19.80;44.40;;;;;;8352984;28;20289;-58
2024/03/27 17:19:12;;;;;;;;;;;19.80;44.40;;;;;;8354133;28;19925;-58
2024/03/27 17:23:13;;;;;;;;;;;19.80;44.40;;;;;;8354116;28;19913;-55
2024/03/27 17:27:14;;;;;;;;;;;19.80;44.40;;;;;;8341848;28;19917;-57
2024/03/27 17:31:14;;;;;;;;;;;19.80;44.60;;;;;;8359462;28;19965;-58
2024/03/27 17:35:15;;;;;;;;;;;19.80;44.60;;;;;;8342193;28;19913;-58
2024/03/27 17:39:15;;;;;;;;;;;19.80;44.60;;;;;;8359532;28;20012;-55
2024/03/27 17:43:16;;;;;;;;;;;19.80;44.60;;;;;;8359449;28;19913;-58
2024/03/27 17:47:16;;;;;;;;;;;19.70;44.80;;;;;;8359114;28;20366;-58
2024/03/27 17:51:18;;;;;;;;;;;19.70;44.60;;;;;;8359186;28;19916;-58
2024/03/27 17:55:18;;;;;;;;;;;19.80;44.60;;;;;;8359021;28;19913;-58
2024/03/27 17:59:19;;;;;;;;;;;19.80;44.60;;;;;;8358610;28;19949;-58
2024/03/27 18:03:19;;;;;;;;;;;19.70;44.60;;;;;;8358723;28;20224;-59
2024/03/27 18:07:20;;;;;;;;;;;19.80;44.70;;;;;;8358704;28;19913;-58
2024/03/27 18:11:21;;;;;;;;;;;19.70;44.60;;;;;;8358309;28;20374;-58
2024/03/27 18:15:21;;;;;;;;;;;19.80;44.50;;;;;;8358483;28;19913;-58
2024/03/27 18:19:22;;;;;;;;;;;19.80;44.50;;;;;;8358071;27;19993;-59
2024/03/27 18:23:24;;;;;;;;;;;19.80;44.40;;;;;;8357689;28;20480;-58
2024/03/27 18:27:25;;;;;;;;;;;19.80;44.30;;;;;;8358135;28;19920;-58
2024/03/27 18:31:25;;;;;;;;;;;19.80;44.40;;;;;;8358472;28;20430;-57
2024/03/27 18:35:26;;;;;;;;;;;19.80;44.20;;;;;;8357843;28;20049;-58
2024/03/27 18:39:26;;;;;;;;;;;19.80;44.40;;;;;;8357814;28;20341;-59
2024/03/27 18:43:27;;;;;;;;;;;19.80;44.30;;;;;;8359397;27;19913;-59
2024/03/27 18:47:28;;;;;;;;;;;19.70;44.30;;;;;;8357679;28;19913;-58
2024/03/27 18:51:28;;;;;;;;;;;19.80;44.30;;;;;;8357876;28;19948;-59
2024/03/27 18:55:29;;;;;;;;;;;19.80;44.30;;;;;;8357479;28;19931;-58
2024/03/27 18:59:29;;;;;;;;;;;19.80;44.30;;;;;;8339506;28;19913;-57
2024/03/27 19:03:30;;;;;;;;;;;19.70;44.80;;;;;;8357013;28;19913;-58
2024/03/27 19:07:31;;;;;;;;;;;19.80;44.40;;;;;;8357051;28;19913;-58
2024/03/27 19:11:31;;;;;;;;;;;19.80;44.40;;;;;;8357386;28;19920;-58
2024/03/27 19:15:32;;;;;;;;;;;19.80;44.30;;;;;;8356718;28;20293;-59
2024/03/27 19:19:33;;;;;;;;;;;19.80;44.30;;;;;;8356719;27;19933;-59
2024/03/27 19:23:33;;;;;;;;;;;19.80;44.30;;;;;;8356499;28;19921;-57
2024/03/27 19:27:34;;;;;;;;;;;19.70;44.20;;;;;;8356425;28;20496;-58
2024/03/27 19:31:34;;;;;;;;;;;19.80;44.20;;;;;;8356880;28;19916;-56
2024/03/27 19:35:35;;;;;;;;;;;19.80;44.50;;;;;;8338421;28;19920;-57
2024/03/27 19:39:37;;;;;;;;;;;19.90;45.50;;;;;;8356036;28;20049;-57
2024/03/27 19:43:37;;;;;;;;;;;19.90;45.60;;;;;;8355923;28;19921;-56
2024/03/27 19:47:38;;;;;;;;;;;19.80;45.50;;;;;;8355380;28;19954;-56
2024/03/27 19:51:38;;;;;;;;;;;19.80;45.30;;;;;;8355873;28;20322;-56
2024/03/27 19:55:39;;;;;;;;;;;19.80;45.30;;;;;;8355769;28;19909;-56
2024/03/27 19:59:40;;;;;;;;;;;19.80;45.20;;;;;;8355632;28;20312;-56
2024/03/27 20:03:40;;;;;;;;;;;19.80;45.10;;;;;;8355586;28;19984;-56
2024/03/27 20:07:41;;;;;;;;;;;19.80;45.00;;;;;;8355554;28;19921;-55
2024/03/27 20:11:41;;;;;;;;;;;19.80;45.00;;;;;;8355310;28;19913;-57
2024/03/27 20:15:42;;;;;;;;;;;19.80;44.90;;;;;;8355382;28;19909;-55
2024/03/27 20:19:43;;;;;;;;;;;19.70;44.70;;;;;;8354846;27;19932;-57
2024/03/27 20:23:43;;;;;;;;;;;19.70;44.70;;;;;;8355115;28;20008;-56
2024/03/27 20:27:44;;;;;;;;;;;19.70;44.70;;;;;;8355268;28;19913;-57
2024/03/27 20:31:44;;;;;;;;;;;19.70;44.70;;;;;;8355175;28;19917;-56
2024/03/27 20:35:45;;;;;;;;;;;19.70;44.80;;;;;;8354990;28;20361;-56
2024/03/27 20:39:45;;;;;;;;;;;19.70;44.70;;;;;;8355016;28;19915;-56
2024/03/27 20:43:46;;;;;;;;;;;19.70;44.70;;;;;;8336966;28;19917;-56
2024/03/27 20:47:46;;;;;;;;;;;19.70;44.70;;;;;;8336923;28;19977;-56
2024/03/27 20:51:47;;;;;;;;;;;19.70;44.60;;;;;;8337154;28;19947;-59
2024/03/27 20:55:48;;;;;;;;;;;19.70;44.70;;;;;;8354603;28;19925;-59
2024/03/27 20:59:48;;;;;;;;;;;19.70;44.60;;;;;;8356783;28;20388;-58
2024/03/27 21:03:49;;;;;;;;;;;19.70;44.60;;;;;;8360050;28;19913;-58
2024/03/27 21:07:49;;;;;;;;;;;19.70;44.50;;;;;;8359912;28;20323;-57
2024/03/27 21:11:50;;;;;;;;;;;19.70;44.60;;;;;;8360094;28;19920;-58
2024/03/27 21:15:50;;;;;;;;;;;19.70;44.50;;;;;;8359914;28;19991;-59
2024/03/27 21:19:52;;;;;;;;;;;19.70;44.40;;;;;;8359667;28;19925;-59
2024/03/27 21:23:53;;;;;;;;;;;19.70;44.40;;;;;;8359592;28;20464;-58
2024/03/27 21:27:53;;;;;;;;;;;19.70;44.60;;;;;;8359737;28;19931;-58
2024/03/27 21:31:54;;;;;;;;;;;19.70;44.40;;;;;;8359710;28;19916;-58
2024/03/27 21:35:54;;;;;;;;;;;19.70;44.40;;;;;;8360331;28;20362;-58
2024/03/27 21:39:55;;;;;;;;;;;19.70;44.40;;;;;;8359266;28;19913;-58
2024/03/27 21:43:56;;;;;;;;;;;19.70;44.40;;;;;;8360002;27;19934;-58
2024/03/27 21:47:56;;;;;;;;;;;19.70;44.40;;;;;;8358905;28;20045;-58
2024/03/27 21:51:57;;;;;;;;;;;19.70;44.40;;;;;;8341148;28;20285;-59
2024/03/27 21:55:57;;;;;;;;;;;19.70;44.30;;;;;;8359069;28;19920;-59
2024/03/27 21:59:58;;;;;;;;;;;19.70;44.30;;;;;;8358788;28;20323;-59
2024/03/27 22:03:58;;;;;;;;;;;19.70;44.30;;;;;;8358640;28;19913;-56
2024/03/27 22:07:59;;;;;;;;;;;19.70;44.40;;;;;;8358825;28;19978;-56
2024/03/27 22:11:59;;;;;;;;;;;19.70;44.40;;;;;;8357971;28;19916;-56
2024/03/27 22:16:00;;;;;;;;;;;19.70;44.40;;;;;;8358367;28;19913;-56
2024/03/27 22:20:01;;;;;;;;;;;19.70;44.40;;;;;;8358147;27;19932;-56
2024/03/27 22:24:03;;;;;;;;;;;19.70;44.50;;;;;;8357995;28;19913;-57
2024/03/27 22:28:04;;;;;;;;;;;19.60;44.40;;;;;;8358547;28;20468;-56
2024/03/27 22:32:05;;;;;;;;;;;19.60;44.50;;;;;;8358104;28;20349;-57
2024/03/27 22:36:10;;;;;;;;;;;19.60;44.40;;;;;;8357665;28;19972;-56
2024/03/27 22:40:11;;;;;;;;;;;19.60;44.40;;;;;;8357874;28;19916;-55
2024/03/27 22:44:12;;;;;;;;;;;19.60;44.40;;;;;;8357539;28;19917;-57
2024/03/27 22:48:13;;;;;;;;;;;19.60;44.50;;;;;;8357375;28;20552;-56
2024/03/27 22:52:13;;;;;;;;;;;19.60;44.50;;;;;;8357516;28;20568;-55
2024/03/27 22:56:14;;;;;;;;;;;19.60;44.50;;;;;;8357598;28;19929;-56
2024/03/27 23:00:19;;;;;;;;;;;19.60;44.50;;;;;;8339183;28;19925;-56
2024/03/27 23:04:20;;;;;;;;;;;19.60;44.50;;;;;;8356973;28;19924;-56
2024/03/27 23:08:20;;;;;;;;;;;19.60;44.50;;;;;;8357344;28;19913;-56
2024/03/27 23:12:21;;;;;;;;;;;19.50;44.50;;;;;;8338973;27;19960;-57
2024/03/27 23:16:21;;;;;;;;;;;19.50;44.50;;;;;;8356777;28;19917;-57
2024/03/27 23:20:22;;;;;;;;;;;19.50;44.50;;;;;;8356648;28;19921;-57